Terminal Aerodrome Forecast
Issued by NWS

Home | Current Version | Previous Version | Text Only | Print | Product List | Glossary On
Versions: 1 2 3 4 5 6 7 8 9 10 11 12 13 14 15 16 17 18 19 20 21 22 23 24 25 26 27 28 29 30 31 32 33 34 35 36 37 38 39 40 41 42 43 44 45 46 47 48 49 50
000
FTUS42 KMHX 171722
TAFISO
TAF
KISO 171722Z 1718/1818 19009G15KT P6SM VCTS SCT050CB
      TEMPO 1720/1722 4SM TS OVC030CB
     FM172300 19009KT P6SM FEW050 SCT250
     FM181600 22009KT P6SM SCT050 BKN200
     AMD LTD TO CLD VIS AND WIND=

USA.gov is the U.S. government's official web portal to all federal, state and local government web resources and services.